Time;durP1;ratioP1;P1;durP2;ratioP2;P2;SDS_P1;SDS_P2;PMS_P1;PMS_P2;Temp;Humidity;BMP_temperature;BMP_pressure;BME280_temperature;BME280_humidity;BME280_pressure;Samples;Min_cycle;Max_cycle;Signal;HPM_P1;HPM_P2
2021/01/15 00:00:17;;;;;;;32.47;20.08;;;1.50;91.50;;;;;;5014164;28;20100;-59
2021/01/15 00:02:42;;;;;;;32.63;20.17;;;1.60;91.10;;;;;;5015572;28;20037;-59
2021/01/15 00:05:08;;;;;;;33.53;21.50;;;1.70;90.80;;;;;;5015446;28;20034;-60
2021/01/15 00:07:34;;;;;;;35.65;21.52;;;1.70;90.80;;;;;;5015130;28;20489;-59
2021/01/15 00:09:59;;;;;;;35.60;21.83;;;1.80;90.80;;;;;;5014308;28;20105;-60
2021/01/15 00:12:25;;;;;;;39.95;22.38;;;1.60;91.00;;;;;;5012422;28;20037;-62
2021/01/15 00:14:51;;;;;;;36.05;22.23;;;1.70;90.80;;;;;;5013385;28;20638;-58
2021/01/15 00:17:16;;;;;;;38.45;22.40;;;1.70;90.80;;;;;;5014664;28;20034;-61
2021/01/15 00:19:42;;;;;;;36.60;22.73;;;1.60;91.20;;;;;;5013340;28;20041;-62
2021/01/15 00:22:07;;;;;;;40.42;24.63;;;1.50;91.30;;;;;;5015379;28;20044;-61
2021/01/15 00:24:33;;;;;;;37.90;24.25;;;1.60;91.00;;;;;;5015836;28;20072;-60
2021/01/15 00:26:58;;;;;;;38.53;24.30;;;1.80;90.80;;;;;;5019407;28;20041;-60
2021/01/15 00:29:24;;;;;;;39.13;23.52;;;1.60;91.30;;;;;;5020414;28;20405;-63
2021/01/15 00:31:49;;;;;;;44.88;23.88;;;1.70;91.10;;;;;;5022171;28;20042;-65
2021/01/15 00:34:16;;;;;;;40.10;24.40;;;1.60;91.10;;;;;;5020882;28;20034;-62
2021/01/15 00:36:44;;;;;;;39.67;23.35;;;1.70;91.10;;;;;;5018503;28;20049;-60
2021/01/15 00:39:13;;;;;;;38.08;23.40;;;1.70;90.80;;;;;;5016164;28;20042;-64
2021/01/15 00:41:40;;;;;;;43.33;25.52;;;1.70;91.00;;;;;;5014702;28;20052;-60
2021/01/15 00:44:06;;;;;;;41.80;24.67;;;1.80;91.00;;;;;;5012283;28;20038;-62
2021/01/15 00:46:32;;;;;;;37.13;23.08;;;1.70;90.90;;;;;;5014072;28;20404;-61
2021/01/15 00:49:03;;;;;;;40.95;24.38;;;1.70;91.00;;;;;;5012915;28;20049;-62
2021/01/15 00:51:30;;;;;;;38.38;23.35;;;1.70;91.30;;;;;;5013772;28;20030;-63
2021/01/15 00:53:56;;;;;;;39.08;22.50;;;1.70;90.90;;;;;;5015278;28;20033;-63
2021/01/15 00:56:22;;;;;;;40.05;25.10;;;1.80;90.90;;;;;;5014543;28;20034;-64
2021/01/15 00:58:48;;;;;;;44.38;24.23;;;1.70;91.00;;;;;;5015777;28;20691;-62
2021/01/15 01:01:16;;;;;;;41.15;24.58;;;1.80;90.70;;;;;;5024554;28;20089;-63
2021/01/15 01:03:42;;;;;;;39.05;23.92;;;1.80;90.70;;;;;;5023801;28;20038;-59
2021/01/15 01:06:10;;;;;;;39.25;23.33;;;1.90;90.60;;;;;;5012972;28;20140;-60
2021/01/15 01:08:35;;;;;;;38.60;24.08;;;1.90;90.60;;;;;;5018881;28;20038;-61
2021/01/15 01:11:01;;;;;;;40.83;25.02;;;1.80;90.70;;;;;;5015981;28;20118;-63
2021/01/15 01:13:26;;;;;;;41.40;23.63;;;1.80;90.70;;;;;;5020877;28;20041;-63
2021/01/15 01:15:52;;;;;;;41.53;24.25;;;1.80;90.70;;;;;;5019273;28;20033;-58
2021/01/15 01:18:17;;;;;;;39.67;23.88;;;1.90;90.70;;;;;;5014154;28;20389;-60
2021/01/15 01:20:43;;;;;;;39.45;25.25;;;1.80;90.70;;;;;;5013203;28;20435;-59
2021/01/15 01:23:08;;;;;;;41.45;23.98;;;1.70;90.80;;;;;;5014682;28;20556;-61
2021/01/15 01:25:34;;;;;;;40.33;24.35;;;1.70;91.10;;;;;;5013229;28;20850;-58
2021/01/15 01:28:00;;;;;;;43.08;24.80;;;1.70;91.00;;;;;;5013381;28;20048;-61
2021/01/15 01:30:25;;;;;;;45.88;24.98;;;1.70;91.00;;;;;;5012643;28;20172;-63
2021/01/15 01:32:51;;;;;;;39.17;25.08;;;1.70;91.10;;;;;;5013496;28;20049;-64
2021/01/15 01:35:17;;;;;;;39.83;24.83;;;1.70;91.30;;;;;;5012825;28;20030;-64
2021/01/15 01:37:43;;;;;;;41.10;25.10;;;1.80;91.00;;;;;;5013245;28;20038;-62
2021/01/15 01:40:09;;;;;;;40.95;24.88;;;1.80;91.40;;;;;;5011706;28;20066;-61
2021/01/15 01:42:34;;;;;;;47.42;25.80;;;1.70;91.30;;;;;;5011757;28;20084;-64
2021/01/15 01:45:00;;;;;;;38.17;23.02;;;1.70;91.30;;;;;;5011920;28;20033;-61
2021/01/15 01:47:26;;;;;;;42.78;24.30;;;1.70;91.30;;;;;;5014355;28;20029;-62
2021/01/15 01:49:51;;;;;;;41.35;24.80;;;1.70;91.40;;;;;;5012846;28;20058;-62
2021/01/15 01:52:18;;;;;;;43.67;24.65;;;1.70;91.50;;;;;;5011738;28;20037;-63
2021/01/15 01:54:46;;;;;;;44.30;25.35;;;1.70;91.60;;;;;;5008300;28;20491;-63
2021/01/15 01:57:12;;;;;;;39.08;24.67;;;1.70;91.50;;;;;;5008493;28;20397;-61
2021/01/15 01:59:38;;;;;;;38.80;24.52;;;1.70;91.50;;;;;;5011552;28;20030;-63
2021/01/15 02:02:04;;;;;;;38.97;24.98;;;1.70;91.50;;;;;;5011797;28;20029;-62
2021/01/15 02:04:30;;;;;;;44.03;25.75;;;1.80;91.30;;;;;;5011811;28;20042;-63
2021/01/15 02:06:56;;;;;;;37.40;24.05;;;1.80;91.20;;;;;;5010988;28;20099;-63
2021/01/15 02:09:32;;;;;;;38.10;22.20;;;1.80;91.30;;;;;;5008057;28;20021;-63
2021/01/15 02:12:10;;;;;;;39.35;23.55;;;1.90;91.10;;;;;;5012709;28;20022;-63
2021/01/15 02:14:59;;;;;;;39.53;23.67;;;1.90;91.00;;;;;;5010409;28;20148;-62
2021/01/15 02:17:29;;;;;;;34.72;23.75;;;1.90;91.00;;;;;;5010338;28;20041;-62
2021/01/15 02:20:16;;;;;;;38.33;23.27;;;1.90;91.10;;;;;;5013283;28;20029;-63
2021/01/15 02:23:21;;;;;;;36.50;22.15;;;1.90;91.00;;;;;;5013171;28;20038;-63
2021/01/15 02:26:10;;;;;;;39.13;22.17;;;1.90;91.10;;;;;;5009797;28;20037;-63
2021/01/15 02:29:10;;;;;;;40.28;24.08;;;1.80;91.40;;;;;;5010295;28;20041;-62
2021/01/15 02:31:45;;;;;;;38.72;23.23;;;1.80;91.40;;;;;;5010422;28;20445;-62
2021/01/15 02:34:42;;;;;;;45.15;25.02;;;1.90;91.30;;;;;;4994262;28;20032;-62
2021/01/15 02:37:08;;;;;;;43.05;23.27;;;1.80;91.30;;;;;;4989321;28;20073;-62
2021/01/15 02:39:59;;;;;;;37.80;23.80;;;1.80;91.40;;;;;;5011989;28;20192;-62
2021/01/15 02:42:25;;;;;;;45.40;24.90;;;1.90;91.30;;;;;;5012613;28;20517;-62
2021/01/15 02:44:53;;;;;;;38.92;24.48;;;1.90;91.20;;;;;;5011586;28;20046;-62
2021/01/15 02:47:24;;;;;;;44.00;24.88;;;1.90;91.30;;;;;;5011391;28;20044;-63
2021/01/15 02:49:51;;;;;;;43.15;23.85;;;1.80;91.40;;;;;;5011855;28;20021;-63
2021/01/15 02:52:18;;;;;;;42.22;24.52;;;1.80;91.40;;;;;;5012104;28;20408;-62
2021/01/15 02:54:43;;;;;;;39.83;24.65;;;1.80;91.60;;;;;;5011542;28;20041;-62
2021/01/15 02:57:09;;;;;;;39.45;24.83;;;1.90;91.50;;;;;;5011887;28;20393;-63
2021/01/15 02:59:35;;;;;;;40.17;23.58;;;1.90;91.60;;;;;;5015725;28;20048;-62
2021/01/15 03:02:18;;;;;;;36.88;23.40;;;1.90;91.40;;;;;;5016069;28;20397;-62
2021/01/15 03:04:55;;;;;;;39.33;24.00;;;1.80;91.50;;;;;;5015796;28;20044;-62
2021/01/15 03:07:23;;;;;;;38.78;22.75;;;1.90;91.50;;;;;;5015709;28;20548;-63
2021/01/15 03:09:52;;;;;;;43.45;23.58;;;1.80;91.60;;;;;;5015804;28;20019;-62
2021/01/15 03:12:20;;;;;;;41.72;24.05;;;1.80;91.70;;;;;;5016824;28;20029;-62
2021/01/15 03:14:46;;;;;;;45.92;25.88;;;1.80;91.60;;;;;;5015706;28;20041;-62
2021/01/15 03:17:14;;;;;;;38.83;22.70;;;1.80;91.60;;;;;;5013475;28;20501;-62
2021/01/15 03:19:40;;;;;;;39.42;24.08;;;1.90;91.30;;;;;;5014978;28;20045;-61
2021/01/15 03:22:17;;;;;;;34.85;22.65;;;1.90;91.40;;;;;;5015543;28;20033;-62
2021/01/15 03:24:55;;;;;;;38.30;22.88;;;1.90;91.40;;;;;;4995907;28;20046;-63
2021/01/15 03:27:22;;;;;;;39.60;22.05;;;1.80;91.40;;;;;;4997206;28;20034;-62
2021/01/15 03:29:48;;;;;;;41.25;23.67;;;2.00;91.50;;;;;;5015874;28;20489;-63
2021/01/15 03:32:14;;;;;;;37.75;22.50;;;1.90;91.30;;;;;;5014373;28;20030;-61
2021/01/15 03:34:40;;;;;;;41.33;23.35;;;1.80;91.60;;;;;;5015148;28;20033;-62
2021/01/15 03:37:06;;;;;;;42.47;23.48;;;1.90;91.60;;;;;;5015612;28;20555;-62
2021/01/15 03:39:33;;;;;;;41.55;23.08;;;1.90;91.60;;;;;;5015223;28;20045;-60
2021/01/15 03:41:58;;;;;;;37.05;22.58;;;1.90;91.50;;;;;;5015424;28;20109;-60
2021/01/15 03:44:24;;;;;;;37.78;22.30;;;1.90;91.30;;;;;;5015079;28;20181;-60
2021/01/15 03:46:54;;;;;;;35.40;20.90;;;2.00;91.40;;;;;;5015599;28;20037;-61
2021/01/15 03:49:20;;;;;;;38.00;21.42;;;1.90;91.40;;;;;;5016057;28;20030;-61
2021/01/15 03:51:46;;;;;;;38.17;22.38;;;1.90;91.50;;;;;;5022962;28;20033;-60
2021/01/15 03:54:11;;;;;;;42.72;24.80;;;1.90;91.80;;;;;;5016541;28;20033;-62
2021/01/15 03:56:37;;;;;;;33.55;21.50;;;1.90;91.60;;;;;;5014657;28;20056;-61
2021/01/15 03:59:02;;;;;;;37.72;21.70;;;1.90;91.50;;;;;;5014583;28;20518;-63
2021/01/15 04:01:28;;;;;;;39.65;23.42;;;1.90;91.70;;;;;;5014862;28;20046;-60
2021/01/15 04:03:54;;;;;;;36.65;21.52;;;2.00;91.50;;;;;;5014349;28;20069;-58
2021/01/15 04:06:26;;;;;;;36.95;22.15;;;1.90;91.50;;;;;;5014146;28;20076;-61
2021/01/15 04:08:51;;;;;;;36.28;20.30;;;1.90;91.70;;;;;;5013980;28;20041;-61
2021/01/15 04:11:20;;;;;;;40.22;21.83;;;1.90;91.60;;;;;;5014800;28;20037;-63
2021/01/15 04:13:46;;;;;;;34.13;21.27;;;2.00;91.70;;;;;;5015227;28;20097;-63
2021/01/15 04:16:15;;;;;;;31.70;19.98;;;1.90;91.60;;;;;;5016564;28;20069;-62
2021/01/15 04:18:43;;;;;;;38.17;21.98;;;2.00;91.50;;;;;;5016665;28;20042;-61
2021/01/15 04:21:13;;;;;;;32.22;18.77;;;1.90;91.50;;;;;;5016627;28;20034;-63
2021/01/15 04:23:39;;;;;;;33.08;19.50;;;1.90;91.60;;;;;;5015312;28;20045;-61
2021/01/15 04:26:04;;;;;;;34.95;19.52;;;2.00;91.50;;;;;;5014849;28;20481;-59
2021/01/15 04:28:30;;;;;;;34.95;20.13;;;2.00;91.40;;;;;;5014390;28;20377;-60
2021/01/15 04:30:56;;;;;;;36.75;21.08;;;2.00;91.40;;;;;;5014473;28;20073;-59
2021/01/15 04:33:21;;;;;;;38.88;21.23;;;1.90;91.70;;;;;;5015220;28;20452;-60
2021/01/15 04:35:47;;;;;;;31.38;18.80;;;1.90;91.40;;;;;;5014555;28;20037;-61
2021/01/15 04:38:12;;;;;;;33.72;19.65;;;2.00;91.40;;;;;;5014385;28;20045;-61
2021/01/15 04:40:39;;;;;;;31.55;19.15;;;2.00;91.30;;;;;;5014766;28;20045;-61
2021/01/15 04:43:05;;;;;;;29.77;17.67;;;2.00;91.30;;;;;;5014312;28;20489;-59
2021/01/15 04:45:31;;;;;;;33.72;20.30;;;2.00;91.20;;;;;;5014035;28;20044;-58
2021/01/15 04:47:58;;;;;;;30.13;20.00;;;2.00;91.40;;;;;;5014296;28;20121;-62
2021/01/15 04:50:27;;;;;;;30.40;18.52;;;2.00;91.40;;;;;;5013332;28;20021;-60
2021/01/15 04:52:53;;;;;;;31.60;18.50;;;1.90;91.30;;;;;;5014746;28;20038;-61
2021/01/15 04:55:21;;;;;;;31.90;19.38;;;2.00;91.50;;;;;;5014175;28;20034;-57
2021/01/15 04:57:49;;;;;;;33.28;19.05;;;2.00;91.30;;;;;;5014352;28;20044;-58
2021/01/15 05:00:26;;;;;;;29.95;16.95;;;2.00;91.50;;;;;;5013941;28;20099;-57
2021/01/15 05:02:53;;;;;;;27.15;17.52;;;1.80;91.70;;;;;;5017247;28;20121;-61
2021/01/15 05:05:26;;;;;;;31.48;18.30;;;1.90;91.60;;;;;;5014972;28;20041;-61
2021/01/15 05:08:12;;;;;;;27.30;16.63;;;1.80;91.80;;;;;;5014773;28;20048;-60
2021/01/15 05:10:40;;;;;;;30.92;17.88;;;1.80;91.40;;;;;;5016312;28;20488;-61
2021/01/15 05:13:08;;;;;;;35.35;19.20;;;1.90;91.40;;;;;;5017680;28;20428;-62
2021/01/15 05:15:36;;;;;;;26.20;17.02;;;2.00;91.20;;;;;;5018748;28;20061;-60
2021/01/15 05:18:06;;;;;;;28.17;17.10;;;2.10;91.00;;;;;;5018778;28;20494;-61
2021/01/15 05:20:33;;;;;;;29.20;16.25;;;2.00;91.00;;;;;;5013229;28;20081;-62
2021/01/15 05:23:03;;;;;;;25.85;16.42;;;1.90;91.10;;;;;;5013694;28;20034;-62
2021/01/15 05:25:31;;;;;;;27.38;17.67;;;1.90;91.20;;;;;;5013313;28;20053;-60
2021/01/15 05:27:57;;;;;;;25.92;16.27;;;1.80;91.20;;;;;;5013403;28;20083;-60
2021/01/15 05:30:24;;;;;;;26.58;16.80;;;1.90;91.30;;;;;;5006090;28;20505;-63
2021/01/15 05:32:51;;;;;;;27.50;16.67;;;1.90;91.20;;;;;;4994126;28;20042;-62
2021/01/15 05:35:17;;;;;;;25.33;16.98;;;1.80;91.40;;;;;;5007201;28;20557;-62
2021/01/15 05:37:58;;;;;;;26.13;17.02;;;1.90;91.30;;;;;;5011223;28;20034;-62
2021/01/15 05:40:35;;;;;;;27.88;17.15;;;2.00;91.20;;;;;;5012635;28;20041;-65
2021/01/15 05:43:01;;;;;;;28.38;17.20;;;1.90;91.20;;;;;;5013840;28;20439;-63
2021/01/15 05:45:27;;;;;;;26.60;16.95;;;2.00;91.20;;;;;;5012386;28;20038;-65
2021/01/15 05:47:52;;;;;;;26.13;16.38;;;1.90;91.10;;;;;;5011931;28;20049;-65
2021/01/15 05:50:18;;;;;;;27.02;16.13;;;1.90;91.20;;;;;;5011669;28;20084;-64
2021/01/15 05:52:58;;;;;;;27.58;15.70;;;1.90;91.10;;;;;;5012763;28;20514;-63
2021/01/15 05:55:27;;;;;;;25.00;15.45;;;1.80;91.10;;;;;;5012459;28;20502;-64
2021/01/15 05:57:52;;;;;;;26.63;16.83;;;1.80;91.40;;;;;;5012362;28;20469;-64
2021/01/15 06:00:24;;;;;;;27.00;16.45;;;1.70;91.40;;;;;;5013640;28;20046;-63
2021/01/15 06:02:50;;;;;;;26.75;16.75;;;1.80;91.30;;;;;;5013249;28;20088;-62
2021/01/15 06:05:18;;;;;;;26.95;15.77;;;1.80;91.10;;;;;;5012670;28;20094;-62
2021/01/15 06:07:44;;;;;;;25.30;15.50;;;1.80;91.10;;;;;;5013535;28;20084;-64
2021/01/15 06:10:10;;;;;;;27.10;16.98;;;1.80;91.10;;;;;;5012960;28;20046;-65
2021/01/15 06:12:42;;;;;;;25.67;16.08;;;1.70;91.10;;;;;;5014262;28;20117;-64
2021/01/15 06:15:08;;;;;;;25.77;16.25;;;1.80;91.10;;;;;;5014500;28;20044;-64
2021/01/15 06:17:38;;;;;;;26.35;15.80;;;1.70;91.10;;;;;;5016151;28;20125;-64
2021/01/15 06:20:04;;;;;;;24.60;14.73;;;1.80;91.00;;;;;;5013728;28;20093;-64
2021/01/15 06:22:44;;;;;;;24.77;15.77;;;1.80;91.00;;;;;;5015465;28;20132;-64
2021/01/15 06:25:18;;;;;;;31.23;17.38;;;1.90;90.60;;;;;;5012332;28;20038;-64
2021/01/15 06:27:45;;;;;;;27.20;16.83;;;1.80;90.90;;;;;;5011725;28;20057;-63
2021/01/15 06:30:19;;;;;;;28.80;16.17;;;1.70;90.80;;;;;;5012204;28;20030;-64
2021/01/15 06:32:46;;;;;;;23.80;15.70;;;1.70;90.80;;;;;;5012469;28;20113;-64
2021/01/15 06:35:30;;;;;;;27.63;16.90;;;1.60;90.80;;;;;;5012953;28;20042;-64
2021/01/15 06:38:26;;;;;;;26.80;16.08;;;1.70;90.90;;;;;;5013324;28;20038;-63
2021/01/15 06:40:52;;;;;;;28.42;15.40;;;1.60;90.90;;;;;;5004719;28;20037;-64
2021/01/15 06:43:24;;;;;;;25.80;15.35;;;1.70;90.80;;;;;;5016026;28;20038;-64
2021/01/15 06:45:53;;;;;;;30.52;16.33;;;1.80;90.60;;;;;;5021014;28;20042;-65
2021/01/15 06:48:22;;;;;;;26.67;15.63;;;1.70;90.70;;;;;;5023367;28;20037;-63
2021/01/15 06:50:51;;;;;;;25.48;16.63;;;1.70;90.70;;;;;;5018638;28;20042;-64
2021/01/15 06:53:22;;;;;;;26.08;16.15;;;1.70;90.60;;;;;;5016059;28;20040;-64
2021/01/15 06:55:52;;;;;;;23.83;15.75;;;1.70;90.40;;;;;;5017352;28;20037;-65
2021/01/15 06:58:20;;;;;;;25.95;15.07;;;1.60;90.60;;;;;;5017324;28;20026;-64
2021/01/15 07:01:24;;;;;;;25.88;14.70;;;1.50;90.80;;;;;;5013239;28;20061;-64
2021/01/15 07:03:52;;;;;;;23.45;14.45;;;1.50;90.60;;;;;;5011239;28;20022;-64
2021/01/15 07:06:27;;;;;;;25.15;15.15;;;1.50;90.70;;;;;;5011935;28;20030;-64
2021/01/15 07:08:53;;;;;;;;;;;1.50;90.50;;;;;;5012664;28;20509;-60
2021/01/15 07:11:22;;;;;;;20.52;14.18;;;1.50;90.40;;;;;;5012089;28;19916;-63
2021/01/15 07:13:52;;;;;;;25.25;13.77;;;1.50;90.30;;;;;;5012072;28;20473;-61
2021/01/15 07:16:29;;;;;;;24.63;14.55;;;1.50;90.50;;;;;;5011284;28;20042;-63
2021/01/15 07:19:15;;;;;;;24.88;13.40;;;1.40;90.40;;;;;;5013330;28;20091;-63
2021/01/15 07:21:58;;;;;;;24.08;14.15;;;1.30;90.30;;;;;;5012551;28;20057;-64
2021/01/15 07:24:28;;;;;;;25.67;14.55;;;1.30;90.30;;;;;;5012330;28;20085;-63
2021/01/15 07:26:54;;;;;;;22.73;14.68;;;1.20;90.50;;;;;;5012357;28;20084;-63
2021/01/15 07:29:20;;;;;;;23.75;14.40;;;1.30;90.30;;;;;;5011726;28;20033;-61
2021/01/15 07:31:52;;;;;;;21.85;14.05;;;1.20;90.30;;;;;;5011281;28;20084;-62
2021/01/15 07:34:21;;;;;;;24.15;14.13;;;1.30;90.30;;;;;;5011685;28;20053;-62
2021/01/15 07:36:47;;;;;;;23.33;13.77;;;1.40;90.20;;;;;;5011390;28;20037;-62
2021/01/15 07:39:14;;;;;;;21.58;13.25;;;1.50;90.20;;;;;;5011884;28;20100;-63
2021/01/15 07:41:48;;;;;;;23.23;13.98;;;1.40;90.00;;;;;;5011346;28;20065;-61
2021/01/15 07:44:23;;;;;;;23.15;13.52;;;1.30;90.30;;;;;;5010218;28;20038;-62
2021/01/15 07:46:49;;;;;;;;;;;1.20;90.30;;;;;;5015486;28;20129;-62
2021/01/15 07:49:15;;;;;;;22.17;13.32;;;1.30;90.40;;;;;;5013631;28;19916;-63
2021/01/15 07:51:40;;;;;;;24.13;13.55;;;1.30;90.30;;;;;;5014800;28;20030;-63
2021/01/15 07:54:06;;;;;;;26.33;14.27;;;1.20;90.40;;;;;;5014917;28;20037;-62
2021/01/15 07:56:32;;;;;;;24.55;14.63;;;1.20;90.30;;;;;;5015068;28;20110;-63
2021/01/15 07:58:57;;;;;;;25.05;14.85;;;1.20;90.40;;;;;;5015293;28;20481;-63
2021/01/15 08:01:23;;;;;;;22.65;15.38;;;1.20;90.40;;;;;;5015122;28;20029;-62
2021/01/15 08:03:56;;;;;;;24.65;14.35;;;1.20;90.30;;;;;;5015648;28;20046;-62
2021/01/15 08:06:22;;;;;;;25.52;15.15;;;1.10;90.30;;;;;;5014878;28;20501;-61
2021/01/15 08:09:05;;;;;;;25.48;14.43;;;1.10;90.40;;;;;;5015289;28;20046;-62
2021/01/15 08:11:36;;;;;;;29.00;16.52;;;1.20;90.20;;;;;;5014666;28;20158;-64
2021/01/15 08:14:14;;;;;;;24.73;15.85;;;1.30;90.10;;;;;;5014556;28;20527;-63
2021/01/15 08:16:42;;;;;;;24.92;14.85;;;1.20;90.00;;;;;;5014744;28;20050;-64
2021/01/15 08:19:13;;;;;;;26.58;16.80;;;1.30;89.90;;;;;;5014729;28;20497;-63
2021/01/15 08:21:43;;;;;;;25.50;15.43;;;1.40;89.50;;;;;;5014013;28;20034;-64
2021/01/15 08:24:09;;;;;;;24.58;15.30;;;1.40;89.30;;;;;;5015884;28;20107;-63
2021/01/15 08:26:42;;;;;;;25.48;15.38;;;1.40;88.80;;;;;;5016545;28;20080;-62
2021/01/15 08:29:08;;;;;;;21.35;14.25;;;1.30;89.50;;;;;;5013834;28;20388;-63
2021/01/15 08:31:34;;;;;;;24.67;14.77;;;1.50;89.10;;;;;;5014782;28;20030;-63
2021/01/15 08:34:22;;;;;;;26.67;15.52;;;1.50;88.40;;;;;;5014009;28;20029;-63
2021/01/15 08:36:54;;;;;;;28.83;16.15;;;1.40;88.40;;;;;;5014233;28;20030;-61
2021/01/15 08:39:19;;;;;;;25.27;15.05;;;1.40;88.70;;;;;;5015287;28;20022;-61
2021/01/15 08:41:59;;;;;;;25.55;14.68;;;1.50;88.80;;;;;;5014523;28;20405;-63
2021/01/15 08:44:34;;;;;;;31.58;16.42;;;1.50;88.50;;;;;;5012687;28;20025;-61
2021/01/15 08:47:03;;;;;;;24.63;15.07;;;1.60;87.90;;;;;;5012794;28;20110;-62
2021/01/15 08:49:28;;;;;;;22.90;14.52;;;1.50;87.90;;;;;;5014008;28;20401;-59
2021/01/15 08:51:55;;;;;;;26.40;15.65;;;1.50;88.10;;;;;;5014348;28;20124;-61
2021/01/15 08:54:22;;;;;;;26.65;15.45;;;1.50;87.70;;;;;;5014460;28;20045;-61
2021/01/15 08:56:49;;;;;;;25.83;15.35;;;1.50;87.60;;;;;;5013867;28;20053;-61
2021/01/15 08:59:37;;;;;;;26.92;15.05;;;1.60;87.30;;;;;;4995093;28;20060;-60
2021/01/15 09:02:05;;;;;;;21.77;14.45;;;1.60;87.30;;;;;;5005316;28;20045;-62
2021/01/15 09:04:33;;;;;;;26.08;15.05;;;1.70;87.10;;;;;;5015177;28;20034;-62
2021/01/15 09:07:01;;;;;;;26.10;15.85;;;1.60;86.40;;;;;;5012117;28;20100;-62
2021/01/15 09:09:32;;;;;;;25.45;14.88;;;1.60;87.00;;;;;;5013541;28;20041;-62
2021/01/15 09:12:03;;;;;;;24.10;14.38;;;1.60;86.90;;;;;;5014953;28;20042;-62
2021/01/15 09:14:38;;;;;;;23.38;15.27;;;1.70;86.10;;;;;;5012521;28;20049;-67
2021/01/15 09:17:07;;;;;;;22.30;14.25;;;1.60;86.60;;;;;;5014616;28;20038;-61
2021/01/15 09:19:35;;;;;;;25.02;14.98;;;1.60;86.00;;;;;;5012510;28;20038;-61
2021/01/15 09:22:04;;;;;;;25.27;15.43;;;1.60;86.00;;;;;;5014769;28;20034;-65
2021/01/15 09:24:31;;;;;;;23.50;15.18;;;1.70;85.70;;;;;;5009514;28;20030;-64
2021/01/15 09:27:01;;;;;;;21.33;13.70;;;1.70;86.00;;;;;;5013726;28;20068;-65
2021/01/15 09:29:27;;;;;;;24.75;13.70;;;1.70;85.60;;;;;;5013359;28;20045;-64
2021/01/15 09:31:53;;;;;;;23.05;15.10;;;1.70;85.20;;;;;;5015790;28;20056;-64
2021/01/15 09:34:20;;;;;;;22.35;14.38;;;1.70;85.30;;;;;;5013173;28;20034;-63
2021/01/15 09:36:47;;;;;;;21.42;14.13;;;1.70;85.80;;;;;;5014336;28;20057;-64
2021/01/15 09:39:14;;;;;;;22.63;14.73;;;1.80;85.00;;;;;;5016611;28;20094;-63
2021/01/15 09:41:47;;;;;;;24.38;14.55;;;1.80;84.90;;;;;;5021894;28;20026;-65
2021/01/15 09:44:14;;;;;;;27.38;15.30;;;1.70;85.20;;;;;;5025183;28;20030;-63
2021/01/15 09:46:40;;;;;;;25.27;14.75;;;1.50;86.50;;;;;;5026026;28;20022;-64
2021/01/15 09:49:05;;;;;;;24.20;15.23;;;1.70;86.40;;;;;;5024283;28;20034;-63
2021/01/15 09:51:31;;;;;;;23.77;15.80;;;1.70;85.80;;;;;;5021539;28;20076;-63
2021/01/15 09:53:58;;;;;;;25.83;16.08;;;1.60;86.60;;;;;;5023122;28;20134;-62
2021/01/15 09:56:34;;;;;;;26.25;15.75;;;1.50;87.20;;;;;;5019826;28;20038;-62
2021/01/15 09:59:02;;;;;;;23.50;14.80;;;1.40;86.90;;;;;;5019093;28;20049;-62
2021/01/15 10:01:30;;;;;;;26.88;15.20;;;1.50;87.40;;;;;;5017827;28;20394;-64
2021/01/15 10:03:57;;;;;;;27.30;15.50;;;1.50;86.50;;;;;;5016584;28;20437;-65
2021/01/15 10:06:24;;;;;;;24.65;14.77;;;1.50;86.80;;;;;;5014680;28;20585;-64
2021/01/15 10:08:50;;;;;;;24.83;15.43;;;1.40;87.10;;;;;;5013328;28;20555;-63
2021/01/15 10:11:27;;;;;;;23.33;14.95;;;1.40;86.90;;;;;;5012025;28;20038;-65
2021/01/15 10:13:54;;;;;;;23.35;15.77;;;1.40;86.50;;;;;;5013445;28;20042;-64
2021/01/15 10:16:20;;;;;;;23.95;15.32;;;1.40;86.90;;;;;;5013550;28;20489;-65
2021/01/15 10:18:46;;;;;;;26.30;16.45;;;1.40;87.00;;;;;;5012663;28;20102;-64
2021/01/15 10:21:12;;;;;;;30.30;16.10;;;1.50;87.00;;;;;;5013041;28;20471;-63
2021/01/15 10:23:38;;;;;;;27.25;15.95;;;1.40;86.70;;;;;;5009949;28;20495;-62
2021/01/15 10:26:05;;;;;;;26.90;14.93;;;1.70;88.20;;;;;;5012225;28;20121;-63
2021/01/15 10:28:31;;;;;;;24.70;15.52;;;1.60;86.70;;;;;;5016429;28;20038;-64
2021/01/15 10:30:57;;;;;;;24.75;16.10;;;1.60;86.10;;;;;;5016492;28;20038;-64
2021/01/15 10:33:23;;;;;;;27.25;16.45;;;1.70;86.50;;;;;;5016969;28;20022;-65
2021/01/15 10:35:50;;;;;;;26.38;16.17;;;1.50;87.20;;;;;;5012165;28;20096;-65
2021/01/15 10:38:15;;;;;;;29.92;17.30;;;1.40;87.90;;;;;;5015613;28;20037;-65
2021/01/15 10:40:43;;;;;;;27.63;17.58;;;1.30;88.40;;;;;;5014605;28;20042;-65
2021/01/15 10:43:08;;;;;;;30.63;16.75;;;1.40;88.70;;;;;;5014946;28;20117;-65
2021/01/15 10:45:34;;;;;;;28.45;17.17;;;1.30;88.70;;;;;;5015580;28;20038;-62
2021/01/15 10:47:59;;;;;;;29.15;16.00;;;1.20;89.20;;;;;;5016055;28;20033;-61
2021/01/15 10:50:25;;;;;;;27.95;16.27;;;1.20;89.70;;;;;;5016374;28;20037;-62
2021/01/15 10:52:53;;;;;;;30.05;16.95;;;1.30;89.40;;;;;;5015605;28;20026;-62
2021/01/15 10:55:20;;;;;;;29.63;16.85;;;1.30;89.50;;;;;;5012432;28;20607;-60
2021/01/15 10:57:45;;;;;;;30.08;16.85;;;1.30;89.30;;;;;;5011249;28;20576;-62
2021/01/15 11:00:13;;;;;;;28.48;16.33;;;1.30;89.10;;;;;;5012825;28;20041;-61
2021/01/15 11:02:39;;;;;;;32.88;20.92;;;1.30;88.50;;;;;;5014453;28;20116;-61
2021/01/15 11:05:06;;;;;;;31.83;18.55;;;1.20;89.60;;;;;;5014813;28;20053;-64
2021/01/15 11:07:32;;;;;;;27.52;16.35;;;1.20;89.70;;;;;;5015505;28;20125;-59
2021/01/15 11:09:57;;;;;;;27.08;17.23;;;1.20;89.50;;;;;;5016390;28;20077;-60
2021/01/15 11:12:23;;;;;;;28.40;17.15;;;1.20;89.10;;;;;;5015510;28;20042;-59
2021/01/15 11:14:48;;;;;;;30.95;17.90;;;1.30;88.80;;;;;;5013938;28;20400;-63
2021/01/15 11:17:14;;;;;;;26.33;17.83;;;1.20;88.70;;;;;;5013410;28;20058;-63
2021/01/15 11:19:40;;;;;;;28.10;17.80;;;1.30;88.90;;;;;;5016250;28;20080;-60
2021/01/15 11:22:05;;;;;;;30.88;19.77;;;1.30;89.10;;;;;;5018687;28;20041;-63
2021/01/15 11:24:31;;;;;;;31.55;17.67;;;1.20;88.80;;;;;;5014510;28;20413;-65
2021/01/15 11:26:57;;;;;;;26.98;17.95;;;1.40;88.80;;;;;;5022973;28;20534;-60
2021/01/15 11:29:23;;;;;;;27.73;17.52;;;1.40;88.60;;;;;;5037614;22;20124;-61
2021/01/15 11:31:49;;;;;;;32.80;18.60;;;1.10;90.00;;;;;;5076314;28;20125;-64
2021/01/15 11:34:20;;;;;;;33.38;19.45;;;1.20;89.90;;;;;;5078278;28;20153;-64
2021/01/15 11:36:48;;;;;;;28.42;17.45;;;1.10;90.10;;;;;;5074026;28;20033;-64
2021/01/15 11:39:14;;;;;;;30.17;18.15;;;0.90;90.40;;;;;;5073552;28;20062;-64
2021/01/15 11:41:40;;;;;;;30.63;18.17;;;0.90;90.60;;;;;;5053518;28;20060;-61
2021/01/15 11:44:07;;;;;;;29.13;17.80;;;1.40;91.60;;;;;;5053609;28;20094;-63
2021/01/15 11:46:34;;;;;;;25.83;16.55;;;1.60;89.80;;;;;;5043468;28;20033;-65
2021/01/15 11:49:01;;;;;;;26.88;17.42;;;1.50;88.40;;;;;;5043211;28;20491;-65
2021/01/15 11:51:30;;;;;;;27.50;17.88;;;1.30;89.50;;;;;;5043834;28;20029;-65
2021/01/15 11:53:56;;;;;;;26.60;16.92;;;1.50;89.00;;;;;;5044695;28;20025;-64
2021/01/15 11:56:22;;;;;;;28.38;17.25;;;1.30;89.20;;;;;;5042944;28;20048;-64
2021/01/15 11:58:48;;;;;;;28.35;17.88;;;1.40;88.80;;;;;;5055460;28;20070;-63
2021/01/15 12:01:20;;;;;;;28.65;17.75;;;1.30;89.00;;;;;;5049728;28;20384;-65
2021/01/15 12:03:46;;;;;;;30.75;16.90;;;1.10;90.30;;;;;;5043247;28;20028;-63
2021/01/15 12:06:12;;;;;;;30.17;18.23;;;1.20;90.00;;;;;;5046007;28;20079;-65
2021/01/15 12:08:39;;;;;;;31.63;18.83;;;1.10;90.40;;;;;;5041518;28;20089;-67
2021/01/15 12:11:07;;;;;;;28.42;17.08;;;1.00;90.80;;;;;;5052855;28;20094;-64
2021/01/15 12:13:34;;;;;;;25.30;16.77;;;1.20;90.60;;;;;;5054031;28;20499;-54
2021/01/15 12:16:00;;;;;;;28.13;17.77;;;1.10;90.30;;;;;;5052186;28;20049;-58
2021/01/15 12:18:26;;;;;;;30.10;17.52;;;0.90;90.60;;;;;;5051887;28;20099;-56
2021/01/15 12:20:51;;;;;;;27.55;17.02;;;0.90;90.50;;;;;;5049222;28;20486;-54
2021/01/15 12:23:21;;;;;;;24.88;16.38;;;1.10;90.10;;;;;;5054370;28;20029;-54
2021/01/15 12:25:46;;;;;;;26.23;16.73;;;1.00;90.10;;;;;;5052683;28;20119;-55
2021/01/15 12:28:13;;;;;;;28.05;16.95;;;1.00;90.00;;;;;;5057512;28;20048;-55
2021/01/15 12:30:40;;;;;;;26.90;17.55;;;1.00;89.50;;;;;;5056228;28;20048;-56
2021/01/15 12:33:15;;;;;;;26.30;15.75;;;1.10;89.60;;;;;;5056805;28;20029;-57
2021/01/15 12:35:42;;;;;;;25.58;15.45;;;1.00;89.00;;;;;;5056667;28;20033;-56
2021/01/15 12:38:13;;;;;;;27.60;16.45;;;1.10;89.30;;;;;;5055721;28;20479;-59
2021/01/15 12:40:40;;;;;;;27.48;15.48;;;1.00;88.90;;;;;;5055036;28;20037;-59
2021/01/15 12:43:07;;;;;;;27.23;16.67;;;1.00;88.40;;;;;;5056069;28;20048;-57
2021/01/15 12:45:36;;;;;;;24.80;15.48;;;1.00;88.20;;;;;;5054144;28;20684;-56